Time;durP1;ratioP1;P1;durP2;ratioP2;P2;SDS_P1;SDS_P2;PMS_P1;PMS_P2;Temp;Humidity;BMP_temperature;BMP_pressure;BME280_temperature;BME280_humidity;BME280_pressure;Samples;Min_cycle;Max_cycle;Signal;HPM_P1;HPM_P2
2022/09/24 00:02:27;;;;;;;;;28.60;27.00;;;;;14.94;47.85;99634.31;5067796;28;8854;-75
2022/09/24 00:04:56;;;;;;;;;30.20;28.00;;;;;14.91;48.09;99634.38;5068222;28;8838;-73
2022/09/24 00:07:25;;;;;;;;;23.40;22.40;;;;;15.04;47.63;99632.41;5067062;28;8880;-73
2022/09/24 00:09:53;;;;;;;;;24.60;24.00;;;;;14.89;47.90;99628.28;5067437;28;8850;-75
2022/09/24 00:12:22;;;;;;;;;27.00;25.40;;;;;14.89;47.64;99630.91;5067403;28;8956;-75
2022/09/24 00:14:50;;;;;;;;;9.00;8.60;;;;;15.00;47.27;99630.72;5067484;28;8858;-74
2022/09/24 00:17:19;;;;;;;;;26.00;25.20;;;;;14.94;47.32;99625.59;5082716;28;8858;-73
2022/09/24 00:19:48;;;;;;;;;26.20;23.80;;;;;15.14;46.96;99628.75;5067514;28;9630;-73
2022/09/24 00:22:17;;;;;;;;;29.20;26.80;;;;;15.10;47.05;99626.19;5082227;28;8847;-74
2022/09/24 00:27:31;;;;;;;;;26.60;25.80;;;;;15.16;47.04;99619.06;5067984;28;8980;-73
2022/09/24 00:30:00;;;;;;;;;23.20;20.20;;;;;15.14;46.96;99615.59;5066163;28;8878;-74
2022/09/24 00:32:28;;;;;;;;;21.80;19.80;;;;;15.23;46.60;99617.19;5067317;28;8869;-74
2022/09/24 00:34:58;;;;;;;;;18.00;17.60;;;;;15.21;46.37;99611.09;5067261;28;8873;-74
2022/09/24 00:37:27;;;;;;;;;25.40;20.80;;;;;15.19;46.31;99612.88;5066964;28;8850;-72
2022/09/24 00:39:56;;;;;;;;;19.00;19.00;;;;;15.25;46.15;99610.13;5066950;28;8863;-74
2022/09/24 00:42:24;;;;;;;;;20.40;19.40;;;;;15.31;46.26;99606.53;5067440;28;8866;-74
2022/09/24 00:44:55;;;;;;;;;19.40;18.20;;;;;15.36;45.93;99604.69;5065953;28;8850;-74
2022/09/24 00:47:30;;;;;;;;;18.00;16.80;;;;;15.23;46.19;99603.19;5065269;28;8858;-74
2022/09/24 00:50:07;;;;;;;;;19.20;18.00;;;;;15.13;46.54;99599.88;5067124;28;8831;-74
2022/09/24 00:52:40;;;;;;;;;24.80;22.40;;;;;15.13;46.83;99597.25;5067503;28;8870;-73
2022/09/24 00:55:10;;;;;;;;;17.60;16.80;;;;;15.19;46.35;99602.38;5064965;28;8862;-73
2022/09/24 00:57:40;;;;;;;;;21.00;20.00;;;;;15.30;46.31;99596.94;5066600;28;8864;-74
2022/09/24 01:00:10;;;;;;;;;24.00;19.80;;;;;15.20;46.19;99602.34;5087188;28;8847;-75
2022/09/24 01:02:45;;;;;;;;;22.40;21.60;;;;;15.33;46.03;99597.75;5052188;28;8882;-74
2022/09/24 01:05:14;;;;;;;;;21.00;21.00;;;;;15.32;46.21;99597.75;5087155;28;8828;-74
2022/09/24 01:07:44;;;;;;;;;26.40;26.40;;;;;15.18;46.41;99592.78;5073740;28;8866;-73
2022/09/24 01:10:12;;;;;;;;;24.20;20.20;;;;;15.21;46.20;99596.19;5081272;28;8920;-74
2022/09/24 01:12:47;;;;;;;;;22.60;21.20;;;;;15.24;46.55;99595.28;5050339;28;8874;-75
2022/09/24 01:15:25;;;;;;;;;23.60;20.80;;;;;15.18;46.53;99600.66;5070413;28;8849;-74
2022/09/24 01:18:02;;;;;;;;;18.80;18.60;;;;;15.12;46.44;99593.75;5070183;28;8854;-75
2022/09/24 01:20:54;;;;;;;;;19.40;19.40;;;;;15.14;46.46;99594.59;5070459;28;8862;-75
2022/09/24 01:23:56;;;;;;;;;18.60;16.60;;;;;14.95;46.97;99594.06;5070251;28;8866;-74
2022/09/24 01:26:50;;;;;;;;;18.00;18.00;;;;;15.21;46.06;99590.94;5068696;28;8881;-74
2022/09/24 01:29:33;;;;;;;;;20.00;18.80;;;;;15.17;46.39;99597.13;5069631;28;8869;-73
2022/09/24 01:32:07;;;;;;;;;21.60;18.80;;;;;15.08;46.39;99597.31;5034998;28;8858;-72
2022/09/24 01:34:40;;;;;;;;;22.00;20.40;;;;;14.95;46.59;99604.56;5069617;28;8955;-73
2022/09/24 01:37:12;;;;;;;;;18.00;17.40;;;;;15.09;46.20;99595.56;5102166;28;8830;-75
2022/09/24 01:39:45;;;;;;;;;19.00;18.60;;;;;15.20;46.32;99593.63;5085007;28;8909;-75
2022/09/24 01:42:15;;;;;;;;;13.00;13.00;;;;;15.23;45.99;99596.16;5102081;28;8822;-73
2022/09/24 01:44:44;;;;;;;;;17.40;17.40;;;;;15.17;46.04;99599.78;5069630;28;9450;-74
2022/09/24 01:47:20;;;;;;;;;17.60;16.20;;;;;15.26;45.93;99600.50;5069488;28;9614;-74
2022/09/24 01:49:52;;;;;;;;;24.40;22.20;;;;;15.17;46.28;99597.13;5102074;28;8885;-74
2022/09/24 01:52:25;;;;;;;;;18.40;17.40;;;;;15.37;45.91;99604.66;5076961;28;8963;-74
2022/09/24 01:54:56;;;;;;;;;20.00;19.20;;;;;15.42;45.51;99604.56;5073937;28;9719;-74
2022/09/24 01:57:29;;;;;;;;;23.40;20.40;;;;;15.30;45.96;99603.03;5102508;28;8885;-75
2022/09/24 02:00:03;;;;;;;;;22.40;20.20;;;;;15.30;46.24;99604.81;5070002;28;8944;-72
2022/09/24 02:02:45;;;;;;;;;19.80;18.40;;;;;15.14;46.43;99602.47;5069261;28;8976;-73
2022/09/24 02:05:19;;;;;;;;;19.40;18.80;;;;;15.19;46.20;99600.59;5069477;28;8835;-74
2022/09/24 02:07:57;;;;;;;;;19.20;18.00;;;;;15.21;46.29;99605.84;5069429;28;8885;-75
2022/09/24 02:10:31;;;;;;;;;21.60;16.60;;;;;15.30;45.81;99604.81;5069639;28;8842;-73
2022/09/24 02:13:07;;;;;;;;;18.80;18.60;;;;;15.08;46.51;99609.59;5069540;28;8865;-73
2022/09/24 02:15:42;;;;;;;;;22.20;22.20;;;;;15.29;46.08;99613.56;5068207;28;8865;-74
2022/09/24 02:18:16;;;;;;;;;20.00;20.00;;;;;15.49;45.64;99607.94;5074495;28;8948;-74
2022/09/24 02:20:47;;;;;;;;;25.20;23.20;;;;;15.54;45.82;99601.72;5071736;28;8847;-76
2022/09/24 02:23:18;;;;;;;;;23.80;21.60;;;;;15.71;45.41;99606.63;5088697;28;8859;-74
2022/09/24 02:25:52;;;;;;;;;28.40;25.60;;;;;15.79;45.58;99596.84;5049854;28;8822;-74
2022/09/24 02:28:21;;;;;;;;;22.60;22.60;;;;;15.75;45.08;99600.44;5068834;28;8846;-75
2022/09/24 02:30:56;;;;;;;;;20.00;19.80;;;;;15.81;45.36;99595.94;5068852;28;8862;-73
2022/09/24 02:36:13;;;;;;;;;20.20;20.00;;;;;15.74;44.94;99593.44;5079019;28;8891;-73
2022/09/24 02:38:42;;;;;;;;;20.00;20.00;;;;;15.79;45.12;99598.59;5068798;28;8850;-72
2022/09/24 02:41:10;;;;;;;;;18.80;18.40;;;;;15.81;45.24;99596.81;5068766;28;8855;-74
2022/09/24 02:43:39;;;;;;;;;26.80;24.00;;;;;15.89;45.28;99597.50;5068667;28;8842;-72
2022/09/24 02:46:09;;;;;;;;;23.60;23.40;;;;;15.90;45.65;99593.97;5068626;28;8822;-74
2022/09/24 02:48:38;;;;;;;;;25.80;24.00;;;;;15.91;45.57;99597.47;5068946;28;8838;-75
2022/09/24 02:51:07;;;;;;;;;28.60;26.00;;;;;15.91;45.45;99597.47;5069237;28;8866;-75
2022/09/24 02:53:36;;;;;;;;;27.40;24.80;;;;;15.90;45.80;99598.38;5088555;28;9594;-73
2022/09/24 02:56:04;;;;;;;;;21.60;19.80;;;;;15.86;45.55;99597.59;5087682;28;8847;-73
2022/09/24 02:58:36;;;;;;;;;25.80;23.60;;;;;15.90;45.67;99598.38;5069522;28;8828;-74
2022/09/24 03:01:05;;;;;;;;;22.60;21.20;;;;;15.86;45.21;99589.69;5088651;28;8848;-72
2022/09/24 03:03:35;;;;;;;;;20.80;20.00;;;;;15.85;45.18;99593.22;5088597;28;8889;-76
2022/09/24 03:06:04;;;;;;;;;17.40;17.40;;;;;15.84;45.60;99586.25;5087843;28;8993;-75
2022/09/24 03:08:34;;;;;;;;;19.80;19.80;;;;;15.82;45.46;99589.78;5088614;28;8967;-74
2022/09/24 03:11:03;;;;;;;;;29.40;27.00;;;;;15.82;45.90;99584.50;5088905;28;8855;-74
2022/09/24 03:13:31;;;;;;;;;24.00;21.00;;;;;15.79;45.75;99593.34;5084132;28;8888;-77
2022/09/24 03:15:59;;;;;;;;;20.20;18.80;;;;;15.71;45.30;99596.09;5100723;28;8874;-72
2022/09/24 03:18:28;;;;;;;;;23.20;20.20;;;;;15.72;45.24;99594.34;5068565;28;8970;-75
2022/09/24 03:20:59;;;;;;;;;19.20;18.80;;;;;15.74;45.51;99588.16;5068517;28;9588;-74
2022/09/24 03:23:28;;;;;;;;;18.80;18.60;;;;;15.70;45.44;99590.88;5067956;28;8857;-73
2022/09/24 03:25:57;;;;;;;;;16.60;15.20;;;;;15.74;44.74;99580.28;5068278;28;8927;-74
2022/09/24 03:28:26;;;;;;;;;18.40;16.60;;;;;15.71;44.62;99582.09;5049653;28;8877;-73
2022/09/24 03:31:00;;;;;;;;;12.80;11.80;;;;;15.61;44.77;99586.66;5048727;28;8967;-74
2022/09/24 03:33:31;;;;;;;;;18.60;17.60;;;;;15.62;44.93;99592.81;5067656;28;8935;-73
2022/09/24 03:36:03;;;;;;;;;21.40;19.60;;;;;15.64;45.06;99591.00;5067457;28;9525;-74
2022/09/24 03:38:34;;;;;;;;;18.40;18.40;;;;;15.64;45.42;99585.75;5066810;28;8854;-74
2022/09/24 03:41:03;;;;;;;;;24.80;22.40;;;;;15.63;45.16;99590.13;5066711;28;8850;-75
2022/09/24 03:43:32;;;;;;;;;23.80;22.40;;;;;15.59;45.34;99588.44;5081918;28;8863;-73
2022/09/24 03:46:01;;;;;;;;;24.60;23.20;;;;;15.51;45.22;99593.88;5081737;28;8973;-75
2022/09/24 03:48:30;;;;;;;;;20.60;20.60;;;;;15.44;45.42;99594.03;5066119;28;8944;-75
2022/09/24 03:51:05;;;;;;;;;22.00;18.80;;;;;15.49;45.29;99586.91;5066186;28;8924;-75
2022/09/24 03:53:34;;;;;;;;;19.60;16.60;;;;;15.46;45.05;99590.47;5066271;28;8890;-74
2022/09/24 03:56:04;;;;;;;;;17.00;16.00;;;;;15.40;44.68;99583.56;5066510;28;8850;-74
2022/09/24 03:58:37;;;;;;;;;13.00;12.40;;;;;15.36;44.48;99588.91;5100684;27;8860;-74
2022/09/24 04:01:06;;;;;;;;;17.80;16.60;;;;;15.39;44.66;99586.25;5064010;28;8842;-76
2022/09/24 04:03:35;;;;;;;;;15.00;14.00;;;;;15.42;44.35;99585.31;5064740;28;8854;-73
2022/09/24 04:06:06;;;;;;;;;15.00;14.60;;;;;15.48;44.33;99580.81;5063816;28;8921;-75
2022/09/24 04:08:34;;;;;;;;;11.40;11.40;;;;;15.51;44.07;99578.09;5066165;28;8858;-73
2022/09/24 04:11:03;;;;;;;;;14.00;12.40;;;;;15.54;44.09;99580.69;5065505;28;8842;-75
2022/09/24 04:13:31;;;;;;;;;12.40;12.40;;;;;15.57;44.00;99583.22;5068222;28;8947;-74
2022/09/24 04:16:02;;;;;;;;;12.00;11.40;;;;;15.61;43.56;99576.16;5067614;28;8862;-74
2022/09/24 04:18:31;;;;;;;;;10.40;10.00;;;;;15.62;43.61;99574.41;5066208;28;8842;-74
2022/09/24 04:21:08;;;;;;;;;11.60;10.80;;;;;15.64;43.13;99567.34;5065840;28;8862;-75
2022/09/24 04:23:36;;;;;;;;;14.40;12.60;;;;;15.63;43.30;99571.72;5066410;28;8866;-75
2022/09/24 04:26:04;;;;;;;;;9.60;9.00;;;;;15.63;42.93;99568.22;5066582;28;8870;-74
2022/09/24 04:28:33;;;;;;;;;12.40;11.20;;;;;15.64;43.32;99567.34;5066548;28;8881;-74
2022/09/24 04:31:01;;;;;;;;;12.40;12.00;;;;;15.63;43.33;99569.09;5066340;28;8878;-75
2022/09/24 04:33:30;;;;;;;;;15.60;14.60;;;;;15.66;43.21;99570.81;5074399;28;8934;-74
2022/09/24 04:35:59;;;;;;;;;12.40;11.60;;;;;15.66;43.45;99562.91;5037927;28;8842;-74
2022/09/24 04:38:28;;;;;;;;;17.00;14.80;;;;;15.65;43.10;99569.06;5066723;28;8881;-74
2022/09/24 04:41:04;;;;;;;;;17.60;15.80;;;;;15.76;43.56;99575.00;5078128;28;8938;-75
2022/09/24 04:43:33;;;;;;;;;13.00;12.00;;;;;15.72;43.25;99578.56;5081590;28;8854;-74
2022/09/24 04:46:02;;;;;;;;;12.00;11.40;;;;;15.74;42.97;99582.91;5068734;28;8866;-75
2022/09/24 04:48:31;;;;;;;;;13.00;13.00;;;;;15.79;42.51;99580.19;5071138;28;8854;-76
2022/09/24 04:51:01;;;;;;;;;17.20;14.80;;;;;15.82;42.90;99581.88;5071616;28;8854;-78
2022/09/24 04:53:31;;;;;;;;;15.80;13.00;;;;;15.87;42.80;99580.03;5052175;28;8846;-75
2022/09/24 04:56:01;;;;;;;;;17.40;15.80;;;;;15.93;43.15;99578.13;5069395;28;8858;-74
2022/09/24 04:58:30;;;;;;;;;16.20;13.60;;;;;16.01;42.92;99582.34;5070471;28;8852;-76
2022/09/24 05:01:01;;;;;;;;;13.60;12.40;;;;;16.08;42.58;99579.53;5075349;28;8963;-75
2022/09/24 05:03:31;;;;;;;;;14.60;12.40;;;;;16.10;42.76;99587.41;5103946;28;9612;-77
2022/09/24 05:06:00;;;;;;;;;14.20;13.00;;;;;16.14;42.57;99583.81;5087963;28;8990;-75
2022/09/24 05:08:30;;;;;;;;;12.20;11.40;;;;;16.20;41.98;99582.78;5086957;28;8950;-74
2022/09/24 05:11:01;;;;;;;;;11.60;11.20;;;;;16.26;41.83;99587.94;5090682;28;8856;-75
2022/09/24 05:13:29;;;;;;;;;13.80;13.80;;;;;16.36;42.12;99590.31;5074277;28;8890;-75
2022/09/24 05:15:59;;;;;;;;;21.80;20.00;;;;;16.42;42.39;99586.66;5069650;28;8920;-75
2022/09/24 05:18:28;;;;;;;;;17.40;17.40;;;;;16.54;41.69;99588.13;5085025;28;8838;-77
2022/09/24 05:20:56;;;;;;;;;17.80;16.40;;;;;16.65;41.92;99591.34;5082718;28;8886;-74
2022/09/24 05:23:25;;;;;;;;;14.00;13.20;;;;;16.71;41.15;99591.22;5086336;28;8846;-75
2022/09/24 05:28:46;;;;;;;;;20.40;20.00;;;;;16.87;42.07;99588.25;5019745;28;8870;-75
2022/09/24 05:31:16;;;;;;;;;19.40;17.00;;;;;16.98;42.04;99587.97;5008315;28;8889;-75
2022/09/24 05:33:45;;;;;;;;;25.40;25.40;;;;;17.06;42.10;99586.00;5017613;28;8910;-74
2022/09/24 05:36:13;;;;;;;;;25.00;23.80;;;;;17.14;42.19;99582.25;5015919;28;8912;-74
2022/09/24 05:38:42;;;;;;;;;32.60;28.40;;;;;17.23;42.72;99570.59;4984408;28;8858;-74
2022/09/24 05:41:12;;;;;;;;;30.00;29.00;;;;;17.32;42.99;99570.34;5017880;28;8874;-74
2022/09/24 05:43:40;;;;;;;;;32.25;31.50;;;;;17.42;42.67;99568.31;5009234;28;9691;-74
2022/09/24 05:46:09;;;;;;;;;27.40;24.80;;;;;17.51;42.72;99580.38;5015074;28;8875;-75
2022/09/24 05:48:37;;;;;;;;;28.80;24.60;;;;;17.63;42.60;99573.88;5013020;28;8960;-76
2022/09/24 05:51:05;;;;;;;;;25.40;25.40;;;;;17.74;42.75;99579.69;5020660;28;8918;-73
2022/09/24 05:53:34;;;;;;;;;18.60;17.20;;;;;17.86;41.91;99581.13;5006433;28;8866;-73
2022/09/24 05:56:02;;;;;;;;;16.60;16.60;;;;;17.94;41.69;99581.78;5012921;28;8859;-72
2022/09/24 05:58:32;;;;;;;;;17.40;17.40;;;;;18.08;41.68;99594.56;4976593;28;8894;-74
2022/09/24 06:01:01;;;;;;;;;20.00;18.60;;;;;18.20;41.33;99594.16;4967464;28;8870;-71
2022/09/24 06:03:30;;;;;;;;;20.80;19.00;;;;;18.30;41.36;99600.91;5023639;28;8883;-81
2022/09/24 06:06:00;;;;;;;;;18.20;17.40;;;;;18.41;40.81;99602.31;5044783;28;8858;-82
2022/09/24 06:08:32;;;;;;;;;17.00;15.60;;;;;18.52;40.78;99608.13;5102757;27;9018;-81
2022/09/24 06:11:01;;;;;;;;;15.00;15.00;;;;;18.64;40.41;99606.88;5071680;28;8858;-82
2022/09/24 06:13:33;;;;;;;;;20.20;20.00;;;;;18.76;39.88;99601.19;5086082;28;8858;-82
2022/09/24 06:16:02;;;;;;;;;16.40;16.40;;;;;18.86;39.56;99605.25;5052586;28;8861;-82
2022/09/24 06:18:33;;;;;;;;;14.20;12.80;;;;;18.99;39.51;99613.66;5085785;28;8946;-83
2022/09/24 06:21:03;;;;;;;;;15.20;14.00;;;;;19.12;39.75;99611.47;5068651;28;8854;-82
2022/09/24 06:23:32;;;;;;;;;12.00;11.20;;;;;19.17;39.05;99613.94;5092677;27;8863;-83
2022/09/24 06:26:01;;;;;;;;;14.80;14.20;;;;;19.33;38.83;99608.97;5086702;28;8969;-83
2022/09/24 06:28:29;;;;;;;;;15.20;15.20;;;;;19.40;38.74;99615.78;5102774;28;8852;-83
2022/09/24 06:31:01;;;;;;;;;24.00;20.20;;;;;19.47;38.81;99618.16;5073098;28;8940;-82
2022/09/24 06:33:31;;;;;;;;;22.80;21.60;;;;;19.38;38.91;99618.47;5075303;28;8851;-81
2022/09/24 06:36:00;;;;;;;;;30.60;27.00;;;;;19.52;38.87;99609.19;5123067;28;8862;-81
2022/09/24 06:38:30;;;;;;;;;13.40;12.60;;;;;19.63;38.99;99612.31;5088842;28;8947;-82
2022/09/24 06:41:00;;;;;;;;;14.40;14.40;;;;;19.82;39.33;99601.94;5071484;28;8888;-82
2022/09/24 06:43:29;;;;;;;;;13.00;13.00;;;;;20.02;39.10;99601.19;5101686;27;8958;-82
2022/09/24 06:45:58;;;;;;;;;12.60;12.60;;;;;20.13;38.86;99603.41;5083848;28;8827;-82
2022/09/24 06:48:30;;;;;;;;;10.80;10.80;;;;;20.33;38.64;99614.06;5082166;28;8865;-80
2022/09/24 06:50:58;;;;;;;;;13.80;12.00;;;;;20.45;37.83;99618.00;5069634;28;8943;-82
2022/09/24 06:53:27;;;;;;;;;11.20;11.20;;;;;20.54;37.05;99611.50;5064184;28;8843;-82
2022/09/24 06:55:58;;;;;;;;;11.60;11.60;;;;;20.71;37.06;99613.47;5076034;28;8883;-81
2022/09/24 06:58:28;;;;;;;;;9.20;9.20;;;;;20.83;35.45;99608.53;5080880;28;8872;-82
2022/09/24 07:00:59;;;;;;;;;9.80;8.20;;;;;20.86;34.02;99607.53;5107095;28;8847;-83
2022/09/24 07:03:30;;;;;;;;;10.60;8.20;;;;;20.96;34.00;99614.19;5085663;28;9089;-81
2022/09/24 07:06:01;;;;;;;;;12.20;10.40;;;;;21.08;34.41;99626.06;5079087;28;8851;-83
2022/09/24 07:08:30;;;;;;;;;9.20;9.20;;;;;21.18;33.90;99622.09;5071749;28;8936;-84
2022/09/24 07:10:59;;;;;;;;;11.20;10.80;;;;;21.31;33.99;99621.56;5088836;27;8954;-81
2022/09/24 07:13:28;;;;;;;;;11.40;11.20;;;;;21.37;34.77;99626.59;5073224;28;8858;-81
2022/09/24 07:15:57;;;;;;;;;12.80;11.00;;;;;21.40;34.75;99635.28;5081692;28;8883;-82
2022/09/24 07:18:27;;;;;;;;;8.60;8.60;;;;;21.59;35.00;99635.38;5104378;27;8886;-81
2022/09/24 07:20:57;;;;;;;;;10.40;10.40;;;;;21.57;33.57;99629.28;5088954;28;8979;-83
2022/09/24 07:23:26;;;;;;;;;11.40;11.40;;;;;21.58;32.83;99632.78;5073877;28;8879;-82
2022/09/24 07:25:56;;;;;;;;;14.60;14.20;;;;;21.72;33.01;99641.00;5090117;28;8872;-77
2022/09/24 07:28:25;;;;;;;;;11.80;11.60;;;;;21.71;33.04;99644.56;5087334;28;8843;-77
2022/09/24 07:30:58;;;;;;;;;11.20;11.00;;;;;21.79;33.10;99642.41;5069631;28;8851;-78
2022/09/24 07:33:27;;;;;;;;;9.80;9.80;;;;;21.83;32.85;99652.91;5086290;28;8835;-75
2022/09/24 07:35:57;;;;;;;;;9.40;9.40;;;;;21.88;32.67;99649.13;5073330;28;8907;-76
2022/09/24 07:38:26;;;;;;;;;10.80;10.80;;;;;21.94;32.52;99647.97;5076315;28;8870;-74
2022/09/24 07:40:58;;;;;;;;;12.00;11.00;;;;;21.96;32.44;99646.09;5113190;27;8896;-77
2022/09/24 07:43:27;;;;;;;;;10.40;10.40;;;;;22.06;32.25;99643.88;5100598;27;8877;-79
2022/09/24 07:45:57;;;;;;;;;10.00;10.00;;;;;22.10;31.80;99635.72;5102054;27;8977;-80
2022/09/24 07:48:25;;;;;;;;;11.40;11.40;;;;;22.18;32.61;99640.66;5064961;28;8854;-76
2022/09/24 07:50:54;;;;;;;;;7.40;7.00;;;;;22.15;31.77;99636.34;5081467;28;8889;-76
2022/09/24 07:53:24;;;;;;;;;9.20;7.80;;;;;22.25;31.25;99633.25;5067511;28;8850;-80
2022/09/24 07:55:55;;;;;;;;;7.80;6.20;;;;;22.28;31.76;99638.47;5067777;28;8866;-77
2022/09/24 07:58:23;;;;;;;;;9.40;9.40;;;;;22.38;30.75;99632.66;5069284;28;8991;-75
2022/09/24 08:00:52;;;;;;;;;9.40;9.00;;;;;22.42;30.55;99635.16;5075856;28;8953;-75
2022/09/24 08:03:21;;;;;;;;;10.80;10.80;;;;;22.56;30.92;99640.66;5081163;28;8978;-76
2022/09/24 08:05:50;;;;;;;;;8.00;7.00;;;;;22.67;30.50;99635.69;5081811;28;8909;-76
2022/09/24 08:08:19;;;;;;;;;10.00;10.00;;;;;22.72;30.83;99636.34;5066314;28;8862;-77
2022/09/24 08:10:49;;;;;;;;;12.40;12.40;;;;;22.75;31.01;99627.34;5100029;27;8870;-78
2022/09/24 08:13:17;;;;;;;;;14.60;12.00;;;;;22.77;30.72;99621.00;5090999;28;9624;-76
2022/09/24 08:15:57;;;;;;;;;10.40;10.40;;;;;22.91;31.65;99630.97;5072015;28;8846;-78
2022/09/24 08:18:27;;;;;;;;;10.20;10.20;;;;;22.72;31.00;99622.16;5102190;28;8883;-79
2022/09/24 08:20:56;;;;;;;;;10.00;10.00;;;;;22.67;31.00;99618.88;5085311;28;8970;-77
2022/09/24 08:23:24;;;;;;;;;10.40;10.40;;;;;22.84;31.02;99624.22;5070009;28;8870;-78
2022/09/24 08:25:55;;;;;;;;;12.60;12.60;;;;;22.83;31.41;99613.66;5074703;28;8860;-79
2022/09/24 08:28:23;;;;;;;;;11.20;11.20;;;;;22.76;30.45;99623.75;5075404;28;8855;-78
2022/09/24 08:30:52;;;;;;;;;14.00;14.00;;;;;22.76;31.26;99624.59;5071563;28;8878;-78
2022/09/24 08:33:21;;;;;;;;;10.40;8.80;;;;;22.84;31.71;99632.19;5118743;27;9658;-77
2022/09/24 08:35:49;;;;;;;;;13.20;12.20;;;;;22.77;31.12;99630.78;5078868;28;8969;-79
2022/09/24 08:38:19;;;;;;;;;14.20;14.00;;;;;22.72;31.22;99631.03;5070362;28;8925;-82
2022/09/24 08:40:59;;;;;;;;;12.60;11.60;;;;;22.91;31.22;99638.06;5082141;28;8902;-77
2022/09/24 08:43:44;;;;;;;;;13.20;11.40;;;;;23.08;31.46;99637.25;5053369;28;8850;-82
2022/09/24 08:49:05;;;;;;;;;10.40;10.40;;;;;23.02;31.79;99646.34;5088412;28;9642;-80
2022/09/24 08:51:39;;;;;;;;;16.80;15.80;;;;;23.00;30.97;99642.91;5091024;28;8843;-79
2022/09/24 08:54:11;;;;;;;;;10.20;10.20;;;;;22.86;31.17;99643.63;5055241;28;8887;-79
2022/09/24 08:56:45;;;;;;;;;11.20;10.40;;;;;22.91;31.91;99641.59;5074949;28;8964;-75
2022/09/24 08:59:24;;;;;;;;;11.80;11.80;;;;;23.01;32.00;99649.13;5081067;28;9622;-76
2022/09/24 09:02:05;;;;;;;;;12.60;11.60;;;;;23.08;31.48;99646.09;5076070;28;8950;-77
2022/09/24 09:04:42;;;;;;;;;13.60;13.20;;;;;23.10;30.91;99640.69;5078043;28;8848;-77
2022/09/24 09:07:19;;;;;;;;;15.00;14.40;;;;;23.04;31.36;99644.50;5087170;28;8844;-77
2022/09/24 09:09:53;;;;;;;;;14.60;13.60;;;;;23.14;31.39;99644.94;5085461;28;8862;-75
2022/09/24 09:12:27;;;;;;;;;11.40;11.40;;;;;23.20;31.32;99641.09;5069697;28;8857;-74
2022/09/24 09:15:01;;;;;;;;;10.40;10.40;;;;;23.16;31.12;99641.25;5089779;28;8858;-76
2022/09/24 09:17:41;;;;;;;;;11.00;11.00;;;;;23.14;31.57;99636.94;5089913;28;8844;-74
2022/09/24 09:20:17;;;;;;;;;11.20;11.20;;;;;23.30;31.10;99627.22;5070317;28;9770;-75
2022/09/24 09:22:50;;;;;;;;;11.60;10.80;;;;;23.35;31.40;99625.19;5071071;28;8965;-75
2022/09/24 09:25:22;;;;;;;;;13.40;13.40;;;;;23.35;32.01;99616.34;5087802;28;8959;-76
2022/09/24 09:27:58;;;;;;;;;10.80;10.40;;;;;23.31;31.92;99613.00;5090722;28;8922;-79
2022/09/24 09:30:37;;;;;;;;;8.60;8.60;;;;;23.36;30.98;99615.41;5070887;28;8870;-76
2022/09/24 09:33:21;;;;;;;;;12.40;11.40;;;;;23.49;31.31;99612.97;5069573;28;8864;-77
2022/09/24 09:35:54;;;;;;;;;15.60;15.00;;;;;23.46;30.81;99610.44;5068890;28;8858;-76
2022/09/24 09:38:31;;;;;;;;;12.60;11.60;;;;;23.54;31.42;99613.59;5069272;28;9050;-77
2022/09/24 09:41:12;;;;;;;;;13.20;13.20;;;;;23.52;31.45;99607.47;5052548;28;8874;-77
2022/09/24 09:43:43;;;;;;;;;13.00;11.80;;;;;23.58;30.90;99612.47;5104017;27;9573;-77
2022/09/24 09:46:18;;;;;;;;;12.40;11.60;;;;;23.57;30.92;99610.75;5052661;28;8842;-75
2022/09/24 09:48:51;;;;;;;;;11.60;11.60;;;;;23.54;30.62;99605.59;5103254;28;8858;-76
2022/09/24 09:51:21;;;;;;;;;12.80;11.40;;;;;23.62;30.71;99603.38;5068877;28;9021;-75
2022/09/24 09:53:55;;;;;;;;;12.80;12.80;;;;;23.80;30.66;99611.34;5068124;28;8946;-74
2022/09/24 09:56:27;;;;;;;;;16.40;16.40;;;;;23.54;30.35;99611.78;5102549;28;8983;-75
2022/09/24 09:59:06;;;;;;;;;14.80;12.60;;;;;23.40;30.63;99614.28;5084871;27;8917;-77
2022/09/24 10:01:39;;;;;;;;;15.00;15.00;;;;;23.48;30.95;99608.59;5068343;28;8850;-76
2022/09/24 10:04:27;;;;;;;;;13.40;12.40;;;;;23.62;30.92;99610.50;5068275;28;9615;-77
2022/09/24 10:07:08;;;;;;;;;13.40;13.40;;;;;23.49;30.92;99613.81;5066582;28;8860;-75
2022/09/24 10:09:38;;;;;;;;;10.80;10.80;;;;;23.64;31.17;99613.94;5067058;28;8836;-77
2022/09/24 10:12:08;;;;;;;;;13.00;13.00;;;;;23.76;31.57;99615.94;5050569;28;8856;-77
2022/09/24 10:14:38;;;;;;;;;11.80;11.80;;;;;23.90;30.81;99618.75;5068185;28;8973;-79
2022/09/24 10:17:09;;;;;;;;;17.40;16.20;;;;;23.88;31.24;99612.66;5052624;28;8884;-78
2022/09/24 10:19:42;;;;;;;;;10.20;10.20;;;;;24.04;30.64;99611.81;5051797;28;8994;-77
2022/09/24 10:22:19;;;;;;;;;12.00;12.00;;;;;23.78;29.62;99608.75;5051353;28;8889;-80
2022/09/24 10:24:49;;;;;;;;;16.20;14.60;;;;;23.87;30.04;99610.06;5067676;28;8891;-76
2022/09/24 10:27:23;;;;;;;;;13.80;11.20;;;;;23.89;30.25;99606.41;5067156;28;8836;-78
2022/09/24 10:32:42;;;;;;;;;11.20;11.20;;;;;24.12;30.21;99597.13;5062929;28;8968;-79
2022/09/24 10:35:22;;;;;;;;;12.00;12.00;;;;;24.33;30.04;99604.88;5087084;28;8909;-77
2022/09/24 10:37:52;;;;;;;;;11.40;9.20;;;;;24.44;29.21;99602.47;5087902;28;8843;-77
2022/09/24 10:40:24;;;;;;;;;10.00;9.20;;;;;24.46;29.42;99607.69;5049422;28;8916;-76
2022/09/24 10:42:59;;;;;;;;;6.20;5.40;;;;;24.66;29.56;99599.44;5084162;28;8964;-77
2022/09/24 10:46:01;;;;;;;;;13.40;11.80;;;;;24.84;29.25;99605.50;5067931;28;8864;-76
2022/09/24 10:48:38;;;;;;;;;10.60;10.60;;;;;24.87;29.39;99605.31;5068898;28;8877;-77
2022/09/24 10:51:20;;;;;;;;;10.60;10.60;;;;;24.94;28.90;99604.97;5087767;28;8871;-78
2022/09/24 10:54:13;;;;;;;;;11.60;11.20;;;;;24.52;28.61;99607.38;5086201;28;9040;-77
2022/09/24 10:56:46;;;;;;;;;7.00;7.00;;;;;24.68;28.33;99610.84;5067134;28;8869;-75
2022/09/24 10:59:40;;;;;;;;;9.80;8.80;;;;;24.77;28.68;99604.16;5087322;28;8852;-76
2022/09/24 11:02:35;;;;;;;;;14.20;14.20;;;;;24.96;28.82;99603.06;5084470;28;8858;-78
2022/09/24 11:05:11;;;;;;;;;11.40;11.40;;;;;25.02;29.24;99589.34;5088704;28;8866;-78
2022/09/24 11:07:55;;;;;;;;;14.40;12.00;;;;;25.29;28.60;99592.19;5079489;28;8885;-77
2022/09/24 11:10:50;;;;;;;;;14.60;14.60;;;;;24.98;27.77;99587.81;5049109;28;8889;-78
2022/09/24 11:13:30;;;;;;;;;14.40;12.80;;;;;24.55;29.22;99579.66;5062964;28;8967;-77
2022/09/24 11:16:23;;;;;;;;;9.20;9.20;;;;;25.02;28.52;99574.19;5085297;28;8870;-72
2022/09/24 11:19:00;;;;;;;;;10.40;10.40;;;;;25.28;28.53;99571.81;5085103;28;8887;-72
2022/09/24 11:21:48;;;;;;;;;11.80;11.80;;;;;25.20;27.97;99569.56;5082699;28;8838;-73
2022/09/24 11:24:36;;;;;;;;;10.00;10.00;;;;;25.49;26.28;99558.94;5064900;28;8868;-78
2022/09/24 11:27:26;;;;;;;;;10.80;10.80;;;;;25.66;26.96;99568.56;5066729;28;8854;-75
2022/09/24 11:30:07;;;;;;;;;12.00;12.00;;;;;25.84;27.82;99550.50;5077644;28;8863;-80
2022/09/24 11:32:49;;;;;;;;;12.20;11.80;;;;;25.71;26.73;99554.91;5087068;28;8886;-74
2022/09/24 11:35:56;;;;;;;;;13.40;13.20;;;;;25.98;25.70;99550.53;5087719;28;8952;-79
2022/09/24 11:38:40;;;;;;;;;11.60;11.60;;;;;25.84;25.29;99548.72;5025426;28;8990;-76
2022/09/24 11:41:22;;;;;;;;;13.00;13.00;;;;;25.93;25.36;99552.63;5024973;28;8848;-74
2022/09/24 11:44:10;;;;;;;;;11.00;8.60;;;;;25.75;25.61;99553.78;5041844;28;8963;-77
2022/09/24 11:46:58;;;;;;;;;11.20;10.00;;;;;26.17;26.46;99542.16;5045560;28;8865;-75
2022/09/24 11:49:47;;;;;;;;;9.00;9.00;;;;;26.42;25.54;99532.53;5045830;28;9066;-75
2022/09/24 11:52:26;;;;;;;;;12.80;12.20;;;;;26.77;25.46;99542.72;5044962;28;8870;-76
2022/09/24 11:55:03;;;;;;;;;9.60;9.60;;;;;26.21;25.21;99542.84;5011297;28;9051;-75
2022/09/24 11:57:37;;;;;;;;;11.60;11.20;;;;;25.90;25.35;99541.25;5028505;28;8848;-76
2022/09/24 12:00:12;;;;;;;;;9.60;9.60;;;;;26.36;25.77;99535.63;5009108;28;9660;-74
2022/09/24 12:02:46;;;;;;;;;9.40;9.40;;;;;26.77;24.99;99534.69;5025431;28;8871;-75
2022/09/24 12:05:27;;;;;;;;;10.80;10.80;;;;;27.14;24.85;99533.00;5026390;28;8969;-76
2022/09/24 12:08:01;;;;;;;;;10.20;9.60;;;;;26.27;24.44;99529.06;5040298;28;8949;-75